Date,TemperatureHighF,TemperatureAvgF,TemperatureLowF,DewpointHighF,DewpointAvgF,DewpointLowF,HumidityHigh,HumidityAvg,HumidityLow,PressureMaxIn,PressureMinIn,WindSpeedMaxMPH,WindSpeedAvgMPH,GustSpeedMaxMPH,PrecipitationSumIn
2013-1-2,28.7,27.2,25.6,15.4,14.7,14.0,62,59,56,30.20,30.13,6,1,21,0.00
2013-1-3,35.1,27.1,17.1,22.7,17.8,12.6,84,68,57,30.22,30.10,16,2,27,0.00
2013-1-4,37.9,33.9,31.2,25.4,23.0,21.5,70,64,58,30.15,30.05,25,9,29,0.00
2013-1-5,39.5,33.9,29.0,26.9,23.8,21.1,86,67,57,30.33,30.09,18,3,31,0.00
2013-1-6,45.1,37.5,28.6,33.5,29.0,24.3,89,72,57,30.15,29.98,13,2,20,0.00
2013-1-7,40.9,36.5,25.5,31.4,27.7,22.4,89,71,61,30.38,30.10,13,4,20,0.00
2013-1-8,35.2,32.4,29.9,30.7,28.7,26.7,90,86,82,30.36,30.34,1,0,2,0.00
2013-1-9,51.5,36.0,25.4,44.4,31.5,23.8,100,85,53,30.34,30.17,16,2,27,0.02
2013-1-10,48.7,43.7,38.1,32.9,30.4,28.0,73,60,51,30.56,30.33,13,2,20,0.00
2013-1-11,40.9,37.1,32.9,38.1,33.8,28.9,98,88,70,30.46,30.06,3,0,4,0.27
2013-1-12,52.1,43.2,38.1,47.8,41.8,37.5,99,95,85,30.13,30.05,5,0,6,0.01
2013-1-13,50.9,46.6,40.2,50.8,46.2,39.4,100,99,97,30.07,29.90,12,2,14,0.01
2013-1-14,54.9,47.6,38.2,54.8,39.7,31.5,100,75,58,30.27,30.01,15,4,24,0.19
2013-1-15,38.4,36.6,31.5,36.7,33.4,29.9,96,88,78,30.31,30.13,11,1,11,0.50
2013-1-16,43.3,35.0,31.5,38.2,33.7,30.4,97,95,74,30.13,29.82,11,1,15,0.72
2013-1-17,43.5,38.8,35.3,34.5,30.1,26.7,82,71,55,30.09,29.93,15,2,19,0.00
2013-1-18,36.4,30.2,25.9,28.1,18.1,12.2,75,61,46,30.45,30.00,19,6,22,0.00
2013-1-19,51.5,36.9,27.0,34.3,27.7,19.4,92,70,50,30.35,29.88,20,7,23,0.00
2013-1-20,53.0,42.4,34.3,35.3,29.0,18.0,79,62,30,29.92,29.76,34,12,37,0.00
2013-1-21,35.4,28.8,24.0,22.0,16.0,9.2,67,59,51,29.92,29.83,24,12,33,0.00
2013-1-22,23.8,16.0,12.4,9.6,0.6,-3.0,59,50,40,30.26,29.92,24,10,33,0.00
2013-1-23,21.7,15.6,9.9,8.3,1.8,0.0,67,54,40,30.32,30.12,21,5,25,0.00
2013-1-24,23.9,18.4,13.0,12.3,7.2,1.0,88,63,43,30.48,30.09,19,4,28,0.00
2013-1-25,18.6,16.5,14.8,15.5,9.0,1.4,92,73,50,30.48,30.04,13,2,17,0.00
2013-1-26,28.5,22.0,15.7,23.9,18.1,13.7,93,85,71,30.39,30.06,12,1,12,0.06
2013-1-27,34.4,27.5,20.2,22.4,19.5,15.1,85,72,55,30.55,30.40,13,2,14,0.01
2013-1-28,37.5,31.7,25.9,36.7,29.7,22.0,97,93,84,30.44,30.01,12,2,16,0.17
2013-1-29,64.0,50.8,37.8,55.5,47.2,37.0,98,88,74,30.06,29.90,12,2,15,0.00
2013-1-30,67.0,53.8,48.5,61.9,52.4,46.5,99,95,84,29.90,29.21,19,3,40,1.54
2013-1-31,54.4,38.4,27.9,53.9,27.1,12.2,99,65,49,29.83,29.08,38,14,49,0.46
2013-2-1,28.7,22.8,16.6,22.4,11.4,4.7,91,62,51,30.33,29.79,30,9,38,0.00
2013-2-2,23.2,19.6,14.8,21.0,11.9,4.8,94,73,59,30.33,29.98,17,5,21,0.00
2013-2-3,30.9,25.1,18.1,27.8,22.1,16.4,95,89,64,29.99,29.78,26,3,32,0.01
2013-2-4,34.4,27.4,21.1,27.4,17.1,10.6,92,65,54,30.05,29.85,23,4,26,0.00
2013-2-5,34.3,30.7,26.5,30.9,27.9,24.9,100,90,81,29.90,29.82,3,0,6,0.00
2013-2-6,38.2,32.2,25.1,31.4,25.7,19.9,97,78,60,30.32,29.89,12,3,20,0.01
2013-2-7,35.3,29.4,22.1,27.9,22.8,18.1,90,77,64,30.41,30.20,11,1,14,0.00
2013-2-8,38.1,33.8,29.8,35.3,29.6,22.0,94,85,69,30.19,29.73,40,6,52,0.04
2013-2-9,36.3,30.1,25.3,22.3,17.8,15.0,74,60,48,30.35,29.88,28,8,37,0.00
2013-2-10,42.7,30.9,18.0,22.9,18.8,13.4,85,62,40,30.44,30.19,14,3,19,0.00
2013-2-11,59.0,40.9,30.6,47.8,35.7,22.0,98,84,34,30.19,29.64,29,6,38,0.36
2013-2-12,49.9,43.3,30.5,33.7,30.0,25.4,82,60,50,29.95,29.77,27,6,34,0.00
2013-2-13,39.6,32.3,24.1,32.0,28.2,21.9,96,85,70,29.92,29.64,5,1,9,0.05
2013-2-14,46.6,37.4,31.6,33.7,29.8,25.6,97,75,55,29.96,29.73,11,2,18,0.05
2013-2-15,52.5,38.3,28.5,38.7,32.3,25.4,95,80,53,29.99,29.88,17,2,20,0.11
2013-2-16,36.2,32.5,28.2,32.1,26.2,17.0,97,79,56,29.97,29.81,14,3,19,0.02
2013-2-17,28.5,24.2,21.1,20.2,13.6,7.5,86,64,48,30.16,29.80,31,11,32,0.00
2013-2-18,39.0,27.9,18.6,18.2,12.4,6.5,61,52,39,30.33,30.10,19,4,28,0.00
2013-2-19,44.1,35.2,27.6,39.6,27.5,16.1,95,74,54,30.10,29.64,26,8,40,0.12
2013-2-20,34.1,27.7,23.6,23.3,15.4,10.5,67,60,53,30.11,29.80,22,10,40,0.00
2013-2-21,34.4,27.8,22.8,20.2,15.8,11.7,69,60,53,30.30,30.08,22,7,28,0.00
2013-2-22,30.2,28.6,25.8,27.0,22.4,17.2,89,78,64,30.35,30.18,9,2,11,0.01
2013-2-23,43.3,35.5,29.5,41.4,34.0,26.8,97,94,89,30.17,29.78,8,0,10,0.01
2013-2-24,44.6,37.4,30.5,38.0,30.2,20.9,98,76,55,30.07,29.76,27,6,30,0.00
2013-2-25,44.6,36.0,28.9,28.9,23.9,19.7,79,62,50,30.18,30.07,12,3,18,0.00
2013-2-26,38.9,33.1,24.8,37.5,30.1,21.4,97,89,75,30.19,29.64,14,2,19,1.16
2013-2-27,50.3,40.1,36.9,40.7,36.9,34.2,97,90,61,29.64,29.51,16,4,24,0.07
2013-2-28,44.1,39.7,35.4,34.9,30.8,27.9,82,71,60,29.68,29.59,18,7,23,0.00
2013-3-1,41.8,37.8,33.4,32.1,29.0,23.9,81,71,58,29.83,29.67,23,9,28,0.00
2013-3-2,33.9,31.5,29.0,26.1,22.7,20.8,76,70,62,29.85,29.77,22,9,27,0.00
2013-3-3,36.2,30.9,27.8,23.2,21.1,19.4,80,67,57,29.87,29.77,23,8,28,0.00
2013-3-4,38.4,31.6,25.7,22.8,19.0,15.4,70,60,51,29.99,29.87,26,8,33,0.00
2013-3-5,43.5,36.3,26.7,29.9,23.7,17.7,73,60,47,30.04,29.79,13,2,16,0.00
2013-3-6,41.0,35.7,31.4,34.1,31.8,29.5,97,87,71,29.97,29.66,22,8,27,0.25
2013-3-7,47.3,40.7,36.4,32.2,29.2,26.0,76,64,51,30.11,29.98,21,8,26,0.00
2013-3-8,47.5,39.9,33.5,31.6,28.2,24.3,84,63,52,30.24,30.10,20,8,25,0.00
2013-3-9,58.6,45.0,33.4,31.3,27.0,22.6,71,51,29,30.31,30.20,10,2,14,0.00
2013-3-10,61.0,46.2,28.6,34.4,28.5,23.7,85,54,32,30.28,30.14,19,4,23,0.00
2013-3-11,57.9,48.1,37.9,49.3,39.4,22.2,91,73,39,30.18,29.86,21,4,27,0.00
2013-3-12,56.8,50.2,39.7,51.7,44.2,30.0,97,80,65,29.91,29.69,29,8,35,1.12
2013-3-13,46.1,39.1,30.6,32.0,26.3,20.8,79,61,43,30.01,29.85,33,8,33,0.00
2013-3-14,40.5,34.5,29.9,21.8,19.1,17.4,70,54,42,30.07,29.97,35,12,42,0.00
2013-3-15,54.2,42.3,27.8,36.9,27.2,19.0,76,56,41,30.04,29.72,20,5,26,0.00
2013-3-16,48.5,38.9,33.4,37.2,33.8,31.5,94,83,59,29.91,29.64,10,2,16,0.04
2013-3-17,39.3,35.0,32.8,31.9,28.7,24.9,94,79,59,30.23,29.90,10,1,12,0.00
2013-3-18,34.8,32.7,30.8,30.8,26.2,20.9,96,78,62,30.27,29.85,15,3,23,0.01
2013-3-19,54.2,40.4,31.7,41.3,29.5,15.1,98,71,25,29.86,29.67,33,8,41,0.28
2013-3-20,48.2,39.6,32.2,27.0,20.5,16.8,68,47,32,29.93,29.72,24,10,32,0.00
2013-3-21,35.6,30.4,26.9,25.3,16.0,10.8,79,55,43,29.84,29.73,22,8,30,0.00
2013-3-22,40.3,33.0,26.3,23.5,19.5,13.3,66,58,48,29.96,29.82,24,9,31,0.00
2013-3-23,48.9,37.4,25.3,27.7,23.5,19.0,78,58,41,29.99,29.88,25,5,25,0.00
2013-3-24,40.8,34.7,25.6,29.8,24.3,20.0,80,66,54,29.96,29.62,12,1,16,0.00
2013-3-25,35.4,32.8,30.6,33.8,30.9,29.2,96,93,78,29.66,29.49,6,1,10,0.33
2013-3-26,49.5,39.8,30.8,33.5,31.0,28.3,96,72,45,29.93,29.66,22,7,32,0.01
2013-3-27,46.2,40.9,36.6,36.6,30.5,27.7,86,67,53,30.07,29.91,28,12,35,0.00
2013-3-28,46.5,41.2,37.4,33.7,30.6,27.9,83,67,51,30.18,30.03,19,8,25,0.00
2013-3-29,53.9,45.1,35.9,35.7,30.9,26.8,75,58,42,30.21,30.09,22,5,26,0.00
2013-3-30,56.9,44.4,29.6,36.1,28.9,25.2,89,58,32,30.18,30.05,13,2,18,0.00
2013-3-31,46.8,41.9,35.9,45.7,36.6,25.5,97,82,55,30.07,29.69,10,1,13,0.23
2013-4-1,57.7,46.8,37.7,45.2,35.9,17.7,97,68,43,29.94,29.69,29,8,34,0.00
2013-4-2,43.3,36.5,29.3,23.1,18.9,16.3,65,49,37,30.13,29.94,22,6,28,0.00
2013-4-3,45.8,35.6,24.7,23.9,18.8,14.5,73,51,32,30.34,30.13,21,6,33,0.00
2013-4-4,47.7,35.8,20.7,25.1,18.2,13.0,79,50,34,30.37,30.03,16,3,19,0.00
2013-4-5,62.0,47.2,32.5,36.5,30.5,21.0,91,57,31,30.03,29.77,19,6,32,0.00
2013-4-6,53.9,43.7,33.5,28.2,24.3,21.1,63,47,32,30.28,30.02,12,3,16,0.00
2013-4-7,67.7,51.7,37.2,47.5,36.6,22.2,75,57,44,30.21,29.89,28,8,31,0.00
2013-4-8,77.9,65.7,51.3,54.0,49.1,44.0,77,57,39,30.02,29.86,19,4,24,0.00
2013-4-9,82.4,70.6,59.0,60.7,54.9,48.8,70,58,44,30.01,29.83,15,4,21,0.00
2013-4-10,88.6,76.6,65.0,64.3,59.0,53.4,72,56,40,29.88,29.69,20,5,25,0.00
2013-4-11,82.5,70.1,55.3,64.2,58.9,51.8,91,69,50,29.84,29.67,15,4,20,0.00
2013-4-12,56.2,51.7,48.7,54.7,50.5,47.7,98,96,89,29.77,29.56,14,2,17,0.62
2013-4-13,65.1,54.9,46.1,47.1,38.9,34.5,87,56,40,29.92,29.74,19,5,26,0.00
2013-4-14,64.3,51.3,40.1,43.6,37.8,34.9,82,61,40,30.10,29.92,15,3,19,0.00
2013-4-15,62.5,57.4,50.1,52.7,49.3,40.8,86,75,63,30.23,30.08,14,4,17,0.01
2013-4-16,73.6,60.6,53.0,61.9,54.4,48.5,92,81,65,30.24,30.03,22,4,26,0.00
2013-4-17,65.9,61.9,56.0,63.2,57.2,53.0,99,86,71,30.18,30.06,9,1,11,0.06
2013-4-18,70.4,61.3,56.5,66.9,58.4,54.0,99,91,77,30.18,29.93,9,1,15,0.17
2013-4-19,73.3,63.0,52.5,66.4,59.1,42.4,95,88,67,29.93,29.52,28,7,36,0.38
2013-4-20,54.4,49.2,42.7,43.8,33.3,27.1,74,55,41,30.31,29.71,25,8,31,0.00
2013-4-21,50.7,43.0,33.8,32.2,27.8,22.5,70,55,41,30.55,30.31,13,3,20,0.00
2013-4-22,56.0,43.6,34.2,38.4,34.0,29.8,90,70,49,30.54,30.35,14,2,17,0.00
2013-4-23,57.3,46.0,39.4,44.8,38.8,33.2,87,77,59,30.39,30.07,10,1,15,0.00
2013-4-24,74.7,55.0,38.7,59.9,48.6,36.7,96,81,53,30.07,29.69,28,5,33,0.07
2013-4-25,61.7,50.9,42.6,43.7,35.8,32.2,74,57,37,30.25,29.96,15,4,18,0.00
2013-4-26,61.3,51.7,39.7,41.5,36.3,33.2,79,57,40,30.41,30.25,12,2,15,0.00
2013-4-27,68.6,44.3,37.2,45.2,36.3,33.6,88,76,39,30.38,30.22,6,0,11,0.00
2013-4-28,63.4,54.2,52.2,50.5,49.5,47.8,90,85,57,30.19,30.09,14,2,16,0.01
2013-4-29,58.5,54.9,50.4,57.4,53.6,48.0,99,96,85,30.10,30.00,12,2,13,0.40
2013-4-30,60.1,56.0,53.1,56.3,54.6,52.7,99,95,85,30.25,30.07,8,1,14,0.02
2013-5-1,68.8,58.0,44.9,53.1,43.9,37.8,96,63,34,30.37,30.25,10,1,13,0.00
2013-5-2,69.4,56.3,40.1,50.9,46.2,38.4,97,71,44,30.40,30.26,12,2,15,0.00
2013-5-3,67.4,55.2,43.9,49.8,45.6,41.5,95,72,44,30.34,30.23,14,3,17,0.00
2013-5-4,67.3,53.9,38.9,49.4,44.0,36.7,96,72,43,30.29,30.12,15,2,17,0.00
2013-5-5,63.9,51.9,41.6,47.0,42.7,38.8,91,73,48,30.21,30.09,12,2,15,0.00
2013-5-6,60.9,52.3,39.4,57.5,49.2,37.5,96,89,83,30.15,30.03,11,2,12,0.01
2013-5-7,61.6,58.6,54.4,61.3,57.7,53.8,99,97,91,30.04,29.91,11,2,14,1.07
2013-5-8,68.8,60.0,52.3,59.4,56.4,51.4,99,89,65,29.95,29.86,26,2,31,0.23
2013-5-9,73.4,60.1,49.9,62.3,56.3,49.3,100,89,64,29.94,29.87,13,1,17,0.01
2013-5-10,80.9,64.5,50.5,64.2,58.9,49.9,99,84,53,29.96,29.80,17,3,39,0.56
2013-5-11,72.2,64.1,60.9,66.7,62.1,55.4,99,94,67,29.82,29.67,11,2,17,0.07
2013-5-12,61.9,55.0,48.8,55.6,36.8,30.0,80,51,40,29.97,29.70,24,7,34,0.00
2013-5-13,56.2,48.1,38.7,36.0,31.7,28.1,80,54,36,30.12,29.96,19,4,26,0.00
2013-5-14,59.7,48.6,33.9,47.1,35.6,28.5,88,63,39,30.17,30.00,11,2,21,0.00
2013-5-15,81.7,61.3,47.8,70.2,54.7,43.6,93,80,55,30.01,29.62,17,2,23,0.02
2013-5-16,80.3,73.6,67.0,66.4,61.7,57.5,85,67,53,29.86,29.68,23,6,32,0.02
2013-5-17,80.1,70.2,56.7,60.1,55.1,46.3,92,61,36,30.09,29.86,10,1,13,0.00
2013-5-18,66.7,61.9,57.4,58.4,55.4,50.6,96,80,57,30.18,30.08,14,2,18,0.00
2013-5-19,69.5,62.1,57.2,66.1,61.1,56.2,100,97,88,30.16,30.03,5,0,6,0.20
2013-5-20,78.7,70.1,63.6,70.5,66.7,63.3,100,90,72,30.07,29.91,13,2,17,0.05
2013-5-21,84.7,73.3,63.2,74.1,69.0,62.6,100,88,68,29.93,29.79,17,3,19,0.00
2013-5-22,87.7,75.0,66.0,74.1,69.3,64.2,100,84,54,29.89,29.74,21,4,33,0.71
2013-5-23,77.0,68.7,64.1,69.9,66.1,63.4,99,92,76,29.82,29.66,16,4,20,0.10
2013-5-24,64.3,55.0,46.0,63.7,47.5,34.1,99,77,59,30.11,29.67,19,5,30,0.08
2013-5-25,64.4,53.8,42.2,43.2,37.8,34.2,77,56,38,30.13,30.02,18,6,29,0.00
2013-5-26,70.3,58.4,47.4,44.2,40.2,35.8,67,52,35,30.17,30.07,18,5,27,0.00
2013-5-27,69.1,58.7,43.4,51.9,45.1,38.7,87,62,43,30.24,30.12,13,2,15,0.00
2013-5-28,76.1,62.9,54.3,67.1,58.3,50.7,97,86,69,30.15,30.01,5,0,11,0.02
2013-5-29,88.4,74.7,59.4,70.1,65.9,58.8,100,77,49,30.05,29.99,16,3,22,0.00
2013-5-30,90.5,79.0,66.9,72.1,68.3,64.8,95,72,48,30.11,30.02,12,1,16,0.00
2013-5-31,89.3,78.2,65.6,69.4,66.9,63.4,96,71,43,30.07,29.94,14,3,21,0.00
2013-6-1,89.5,79.6,67.4,72.9,68.6,64.2,90,71,52,29.97,29.83,15,3,23,0.00
2013-6-2,82.0,74.1,69.0,73.7,68.6,64.9,95,83,70,29.83,29.75,16,5,19,0.00
2013-6-3,77.5,70.8,64.7,70.1,64.8,55.4,99,83,61,29.90,29.78,12,1,18,0.41
2013-6-4,74.4,65.0,55.7,55.6,49.2,41.3,84,58,43,30.07,29.89,11,2,17,0.00
2013-6-5,76.5,64.8,49.0,61.1,54.4,47.3,95,71,49,30.14,29.98,12,2,18,0.00
2013-6-6,69.3,63.0,58.4,63.8,59.6,55.4,98,89,77,30.02,29.83,14,1,19,0.71
2013-6-7,66.8,64.2,61.4,66.5,63.7,60.8,100,99,95,29.83,29.58,12,2,13,0.67
2013-6-8,76.8,69.1,62.9,64.8,62.5,59.7,95,80,62,30.04,29.65,13,2,17,0.00
2013-6-9,79.1,69.1,59.0,69.5,63.9,57.8,97,85,64,30.15,30.04,7,1,11,0.00
2013-6-10,78.6,70.1,66.5,75.0,69.1,66.2,99,97,86,30.06,29.70,16,3,19,0.63
2013-6-11,79.1,71.9,64.3,70.0,66.2,64.0,99,83,69,29.78,29.71,20,5,28,0.01
2013-6-12,85.9,75.2,63.5,72.7,68.0,61.7,95,79,58,29.81,29.71,15,1,18,0.00
2013-6-13,81.5,71.6,66.5,71.1,66.0,57.8,98,83,66,29.75,29.40,26,6,37,0.53
2013-6-14,77.5,68.6,60.9,59.0,56.8,53.8,83,67,48,29.92,29.54,19,3,22,0.00
2013-6-15,80.7,70.5,58.7,61.8,57.1,52.3,89,65,38,30.02,29.91,18,3,18,0.00
2013-6-16,81.4,70.3,59.0,71.0,62.5,53.5,90,77,59,29.97,29.81,13,2,23,0.03
2013-6-17,85.4,76.4,66.8,72.2,67.5,63.0,90,75,57,29.90,29.80,13,2,16,0.00
2013-6-18,78.0,69.6,64.3,72.0,67.1,63.1,97,92,80,29.85,29.73,12,1,15,0.67
2013-6-19,76.3,67.3,61.0,63.6,60.6,57.5,99,81,57,30.10,29.84,8,1,12,0.71
2013-6-20,78.9,67.7,56.5,66.7,61.6,55.6,99,83,60,30.21,30.10,16,3,20,0.00
2013-6-21,81.0,69.2,56.1,64.3,59.0,52.4,95,72,53,30.25,30.16,11,2,15,0.00
2013-6-22,85.8,72.4,57.2,71.2,64.3,53.4,95,77,56,30.20,30.05,16,3,18,0.00
2013-6-23,85.6,75.0,65.1,73.0,69.2,63.9,98,83,63,30.13,30.00,9,1,13,0.00
2013-6-24,91.3,77.6,69.5,74.6,70.1,66.8,96,80,52,30.05,29.95,15,2,23,0.03
2013-6-25,91.4,79.2,67.4,75.4,70.7,65.5,97,77,55,29.97,29.80,14,2,33,0.27
2013-6-26,87.4,76.1,65.4,75.2,69.3,64.1,97,80,64,29.86,29.75,14,2,18,0.00
2013-6-27,83.5,74.1,65.5,75.6,70.2,65.1,99,88,73,29.76,29.54,19,3,22,0.01
2013-6-28,87.7,76.8,68.6,74.4,68.3,63.0,92,76,57,29.55,29.41,16,2,22,0.01
2013-6-29,85.9,76.3,67.8,69.7,65.5,63.2,97,71,48,29.64,29.45,13,2,17,0.10
2013-6-30,85.8,74.4,65.8,76.1,70.6,65.2,99,89,66,29.81,29.63,15,2,27,0.76
2013-7-1,81.5,74.4,69.4,74.0,71.3,69.0,99,90,75,29.91,29.78,14,3,20,0.02
2013-7-2,82.2,76.4,73.1,74.5,72.6,70.6,95,89,76,30.09,29.91,22,7,27,0.00
2013-7-3,83.8,76.2,71.9,76.4,73.0,70.5,98,91,76,30.17,30.08,14,4,17,0.10
2013-7-4,88.6,79.8,72.9,76.4,73.7,71.3,98,83,65,30.18,30.08,19,6,24,0.00
2013-7-5,89.0,80.0,70.5,76.5,73.5,69.2,97,81,64,30.15,30.04,20,4,23,0.00
2013-7-6,91.8,81.5,72.0,76.2,73.5,70.7,97,78,56,30.12,29.98,14,2,15,0.00
2013-7-7,90.8,77.2,68.9,76.4,71.3,68.0,97,83,62,30.04,29.92,22,2,30,0.15
2013-7-8,84.7,75.8,68.6,72.0,69.5,67.7,97,82,58,30.04,29.97,11,2,17,0.00
2013-7-9,82.2,75.9,70.7,75.4,71.9,68.5,95,88,76,30.04,29.93,12,1,14,0.12
2013-7-10,86.5,77.8,73.2,76.9,72.9,69.3,95,86,60,29.94,29.78,12,2,17,0.00
2013-7-11,84.6,77.0,72.6,71.6,68.8,64.0,94,77,60,29.86,29.77,9,1,12,0.01
2013-7-12,74.3,69.9,65.3,69.3,66.0,63.0,97,88,69,30.00,29.85,10,1,15,0.25
2013-7-13,82.3,74.9,68.4,75.0,70.7,67.1,96,88,72,30.22,29.97,8,1,14,0.01
2013-7-14,89.2,79.8,72.6,75.0,73.2,71.5,99,82,58,30.28,30.20,13,3,19,0.00
2013-7-15,93.1,81.9,69.4,77.1,73.2,68.5,99,77,52,30.24,30.13,9,1,13,0.00
2013-7-16,92.5,84.7,77.4,76.4,72.7,69.4,88,69,48,30.19,30.11,10,1,13,0.00
2013-7-17,93.8,84.0,73.3,76.3,72.3,68.5,95,71,45,30.16,30.02,6,1,12,0.00
2013-7-18,96.3,85.2,72.4,79.1,75.6,70.4,95,74,53,30.05,29.93,12,1,17,0.00
2013-7-19,95.9,84.0,72.9,79.6,75.7,69.7,96,78,54,29.94,29.78,15,2,25,0.01
2013-7-20,90.0,81.7,75.0,76.9,71.6,68.7,83,72,56,29.82,29.72,15,3,20,0.01
2013-7-21,84.4,77.8,70.7,75.4,71.6,67.4,95,82,70,29.88,29.81,7,0,12,0.03
2013-7-22,87.4,76.6,69.3,76.4,72.5,68.7,100,88,63,29.87,29.69,11,1,25,0.50
2013-7-23,84.4,76.1,70.3,74.1,70.6,67.2,100,85,62,29.71,29.59,16,2,22,0.04
2013-7-24,80.0,74.6,66.1,68.9,63.9,56.9,87,70,53,29.89,29.62,7,1,12,0.00
2013-7-25,76.1,66.9,57.2,63.0,57.6,51.7,89,73,58,29.99,29.88,12,2,14,0.00
2013-7-26,82.3,70.4,58.6,64.9,61.2,57.4,97,75,45,30.04,29.96,9,1,12,0.00
2013-7-27,81.8,69.1,58.4,71.7,65.6,56.6,98,89,68,29.99,29.86,25,3,32,0.72
2013-7-28,82.5,73.1,64.5,71.4,68.6,63.3,99,87,60,29.94,29.83,12,2,16,0.48
2013-7-29,79.1,69.0,59.1,63.2,59.5,56.1,97,73,51,30.11,29.94,10,1,14,0.01
2013-7-30,80.3,70.1,58.0,65.2,60.2,55.1,92,73,52,30.18,30.08,14,1,17,0.00
2013-7-31,78.0,69.0,61.3,69.4,64.6,59.9,97,87,70,30.10,29.95,14,2,18,0.01
2013-8-1,82.4,72.9,66.8,73.9,69.2,65.8,99,89,69,29.95,29.75,12,2,14,0.17
2013-8-2,83.1,74.5,64.2,68.7,64.0,61.1,91,71,49,29.90,29.79,17,3,19,0.00
2013-8-3,74.2,70.7,66.2,68.2,64.7,61.3,93,82,68,29.91,29.84,9,1,14,0.00
2013-8-4,77.8,70.4,62.9,65.2,59.1,54.4,93,69,48,29.98,29.86,14,2,19,0.00
2013-8-5,78.4,68.5,58.1,62.8,57.3,53.2,88,69,46,30.06,29.95,8,0,10,0.00
2013-8-6,73.2,65.5,60.8,69.4,63.7,58.3,99,94,86,30.02,29.96,10,1,12,0.68
2013-8-7,81.3,71.8,66.1,74.5,69.5,65.5,99,93,78,30.02,29.92,11,2,15,0.83
2013-8-8,82.7,73.4,67.2,76.1,71.4,66.9,100,94,79,29.98,29.90,18,2,21,0.08
2013-8-9,84.6,77.6,73.0,77.5,74.1,71.2,100,90,75,29.90,29.80,12,3,18,0.25
2013-8-10,82.9,74.9,68.0,71.5,67.2,63.2,96,78,57,30.02,29.89,5,0,9,0.00
2013-8-11,83.3,73.5,64.3,72.0,67.2,63.1,97,82,64,30.07,29.93,12,2,15,0.00
2013-8-12,86.0,75.6,67.7,73.6,69.4,66.3,97,83,56,29.97,29.85,7,0,14,0.00
2013-8-13,83.1,73.8,67.1,72.5,68.3,59.9,99,84,64,29.85,29.67,10,1,15,0.78
2013-8-14,72.5,64.9,56.9,59.7,52.9,46.9,75,65,53,30.04,29.78,13,2,21,0.00
2013-8-15,75.3,63.9,51.5,59.2,54.1,49.5,94,72,50,30.14,30.04,6,1,16,0.00
2013-8-16,78.5,64.6,50.9,62.4,55.5,49.7,97,75,45,30.15,30.09,6,0,10,0.00
2013-8-17,78.4,66.7,52.3,63.5,58.5,50.9,97,77,52,30.23,30.14,7,1,13,0.00
2013-8-18,68.7,65.0,60.6,63.7,61.3,59.0,96,88,76,30.21,30.12,5,0,7,0.06
2013-8-19,75.4,66.0,57.8,69.5,63.6,57.0,99,92,81,30.14,30.01,11,0,11,0.00
2013-8-20,84.2,70.7,61.0,79.9,64.8,60.7,100,84,55,30.12,30.03,8,1,12,0.01
2013-8-21,85.6,73.8,61.8,75.0,68.5,60.3,97,85,67,30.14,30.00,12,1,16,0.00
2013-8-22,84.5,76.2,67.6,73.0,69.2,64.7,97,80,64,30.02,29.86,13,1,18,0.00
2013-8-23,75.2,70.3,61.5,69.3,65.7,60.3,96,86,71,30.07,29.88,6,0,11,0.06
2013-8-24,79.5,68.8,58.3,64.7,59.0,54.8,97,73,45,30.29,30.07,8,1,12,0.01
2013-8-25,80.2,67.4,54.2,67.3,59.6,53.0,97,78,52,30.36,30.20,11,2,15,0.00
2013-8-26,85.6,73.3,59.1,69.3,63.7,57.0,94,74,56,30.22,29.92,11,2,14,0.00
2013-8-27,89.2,80.1,74.2,74.6,70.6,66.1,83,73,58,29.92,29.80,10,2,15,0.00
2013-8-28,78.0,74.6,69.5,72.7,71.1,69.2,99,89,80,29.85,29.75,5,0,10,0.56
2013-8-29,82.4,74.3,67.3,72.4,69.9,65.8,100,87,65,29.96,29.78,11,0,14,0.01
2013-8-30,86.4,74.7,65.7,73.1,69.4,64.8,99,85,60,29.98,29.80,18,3,22,0.00
2013-8-31,89.2,77.7,68.5,76.3,72.1,67.4,97,84,58,29.82,29.71,11,2,16,0.00
2013-9-1,87.4,76.8,67.5,78.1,72.6,66.6,98,88,69,29.78,29.69,13,1,18,0.33
2013-9-2,88.1,78.2,70.1,75.6,72.3,69.5,99,84,60,29.74,29.64,11,1,14,0.02
2013-9-3,80.9,74.5,65.3,71.0,63.3,55.4,90,69,49,29.91,29.66,12,1,18,0.00
2013-9-4,81.0,69.6,57.7,59.0,56.5,53.0,88,65,40,30.03,29.91,9,1,12,0.00
2013-9-5,80.6,70.3,59.3,64.8,57.3,48.6,87,65,41,30.08,29.96,16,2,18,0.00
2013-9-6,74.2,63.1,53.8,52.7,49.3,45.2,81,62,43,30.22,30.08,9,1,12,0.00
2013-9-7,80.5,63.6,46.5,62.2,54.5,44.5,95,74,49,30.10,29.88,12,1,17,0.00
2013-9-8,83.4,72.0,61.3,68.9,63.5,57.3,92,76,61,30.03,29.83,12,1,13,0.01
2013-9-9,74.4,66.2,58.2,66.1,56.5,48.2,88,71,64,30.16,30.02,7,1,11,0.00
2013-9-10,91.2,78.2,66.8,76.2,71.1,65.0,98,81,60,30.11,30.00,11,2,15,0.00
2013-9-11,93.3,81.4,69.4,78.4,74.0,68.8,99,81,56,30.08,29.93,17,2,19,0.00
2013-9-16,71.1,62.1,57.4,55.8,54.4,53.3,87,77,57,30.20,30.07,3,0,16,0.13
2013-9-17,65.6,55.4,45.6,53.7,43.9,39.7,85,68,40,30.39,30.20,10,1,18,0.00
2013-9-18,70.2,53.3,39.2,51.2,45.4,38.0,97,77,46,30.30,30.13,14,1,17,0.00
2013-9-19,76.5,59.7,43.0,60.1,52.6,41.9,97,80,55,30.16,30.02,10,1,13,0.00
2013-9-20,79.4,64.5,50.8,64.5,58.4,49.9,99,83,56,30.04,29.89,14,2,16,0.00
2013-9-21,71.5,63.6,57.8,64.7,61.1,56.3,100,92,74,29.91,29.63,18,3,28,0.77
2013-9-22,70.8,61.8,55.7,58.9,53.4,48.2,98,76,51,29.91,29.68,9,1,18,0.01
2013-9-23,65.4,56.9,47.9,48.1,45.3,42.5,86,66,52,30.05,29.91,14,1,15,0.00
2013-9-24,72.3,55.5,39.6,51.5,46.2,38.5,97,74,42,30.08,29.90,7,1,14,0.00
2013-9-25,74.5,58.4,43.0,52.0,46.1,41.6,96,69,33,29.95,29.83,9,1,13,0.00
2013-9-26,52.4,48.9,46.8,50.4,45.9,44.5,94,90,82,29.94,29.89,0,0,3,0.00
2013-9-28,67.4,61.5,50.1,57.8,54.1,48.7,95,78,62,30.27,30.18,6,1,11,0.00
2013-9-29,71.8,57.9,43.2,57.3,51.4,42.4,99,81,53,30.18,30.01,9,1,12,0.00
2013-9-30,75.3,60.2,46.1,59.4,53.4,45.2,98,81,52,30.05,29.92,9,1,13,0.00
2013-10-1,80.4,65.7,51.6,62.9,57.9,50.3,97,78,54,30.02,29.90,12,1,15,0.00
2013-10-2,83.8,68.8,54.7,66.1,60.3,53.2,97,77,52,30.02,29.93,15,2,15,0.00
2013-10-3,82.7,69.5,57.0,67.3,62.5,54.9,97,80,58,30.08,29.97,11,0,15,0.00
2013-10-4,85.8,71.1,58.4,69.3,64.5,57.8,99,82,53,30.04,29.95,7,0,11,0.00
2013-10-5,87.5,74.7,64.2,70.3,66.2,62.0,95,77,52,30.03,29.93,10,1,14,0.00
2013-10-6,87.5,73.8,61.3,70.2,65.8,60.4,99,79,49,29.97,29.83,22,4,26,0.00
2013-10-7,72.4,65.1,56.4,68.9,59.3,45.1,98,82,63,30.00,29.67,24,6,28,0.67
2013-10-8,56.7,53.4,48.4,45.6,44.8,43.7,85,73,66,30.19,30.00,7,0,11,0.00
2013-10-10,56.1,54.5,52.8,55.5,53.8,52.2,99,98,97,30.03,29.98,11,4,17,1.06
2013-10-11,60.7,58.1,55.9,60.4,57.4,55.0,99,98,97,29.98,29.92,8,4,11,1.12
2013-10-12,68.8,62.3,60.0,60.1,57.5,52.9,99,85,59,30.12,29.97,8,2,18,0.53
2013-10-13,59.3,58.6,57.5,58.4,56.8,53.3,98,94,86,30.28,30.23,4,0,9,0.00
2013-10-14,66.5,58.3,52.9,56.7,53.3,50.3,95,84,67,30.31,30.18,5,0,10,0.00
2013-10-15,71.4,58.2,47.1,56.2,52.0,46.2,99,82,55,30.20,30.03,4,0,7,0.00
2013-10-16,68.4,60.9,54.5,62.2,57.9,51.0,96,90,80,30.03,29.85,10,1,11,0.00
2013-10-17,73.9,63.9,59.3,67.5,61.6,59.0,100,93,71,29.85,29.69,10,1,16,0.05
2013-10-19,60.9,57.5,50.1,56.3,51.6,45.0,95,81,69,29.88,29.72,21,4,28,0.07
2013-10-20,60.7,50.7,39.9,44.4,39.3,36.1,88,66,46,30.05,29.82,21,3,22,0.00
2013-10-21,65.9,49.9,35.4,47.5,40.6,33.8,95,74,44,30.10,29.93,20,3,24,0.00
2013-11-2,64.3,55.7,48.7,48.3,43.1,40.7,75,63,50,29.81,29.64,17,4,33,0.02
2013-11-3,54.6,47.5,35.3,42.3,33.6,23.9,80,60,35,30.43,29.82,14,5,17,0.00
2013-11-4,46.6,36.2,29.6,29.3,25.1,21.0,83,65,46,30.60,30.43,11,2,14,0.00
2013-11-5,53.4,43.3,31.7,44.2,36.9,26.9,88,79,63,30.59,30.41,5,0,6,0.00
2013-11-6,47.6,47.2,46.9,44.8,44.1,43.5,90,89,88,30.41,30.40,0,0,0,0.00
2013-11-7,56.9,50.1,40.9,54.7,40.8,25.8,94,71,51,30.02,29.83,15,4,23,0.07
2013-11-8,48.3,41.0,30.1,32.7,28.1,24.6,81,61,46,30.27,30.02,16,3,21,0.00
2013-11-9,51.8,40.0,26.0,33.6,29.5,22.9,90,68,48,30.30,29.97,14,4,23,0.00
2013-11-10,42.0,39.3,36.8,31.4,30.3,29.4,75,70,66,29.97,29.93,5,3,6,0.00
2013-11-11,50.5,49.0,46.9,33.6,33.1,32.6,59,54,51,30.03,29.96,7,4,19,0.00
2013-11-12,51.0,38.1,30.0,39.4,24.0,15.4,75,57,43,30.36,29.93,18,6,23,0.00
2013-11-13,41.3,34.0,28.7,24.7,20.9,19.1,68,59,48,30.44,30.32,15,4,20,0.00
2013-11-14,57.1,41.1,27.8,27.0,20.6,15.5,66,46,24,30.32,30.17,14,2,17,0.00
2013-11-15,60.2,40.9,25.8,36.4,27.8,20.7,85,62,27,30.23,30.13,7,1,11,0.00
2013-11-16,57.9,46.8,35.5,50.0,42.9,33.2,98,87,66,30.28,30.18,5,1,10,0.04
2013-11-17,59.3,52.0,48.7,58.1,51.3,48.1,99,98,94,30.18,29.63,16,4,20,0.02
2013-11-18,64.1,57.5,46.3,59.5,39.3,28.9,96,53,33,29.89,29.60,21,10,38,0.09
2013-11-19,46.1,40.8,32.6,29.9,27.5,23.8,71,59,50,30.33,29.89,26,8,27,0.00
2013-11-20,48.1,35.3,26.1,28.0,22.6,17.7,78,61,43,30.53,30.32,9,1,13,0.00
2013-11-21,44.0,36.3,24.4,37.7,30.0,18.6,90,78,68,30.54,30.34,5,0,7,0.00
2013-11-22,56.7,49.4,41.1,52.3,45.0,35.8,91,85,76,30.34,29.96,14,2,18,0.00
2013-11-23,52.3,39.0,27.4,45.3,26.4,12.3,79,61,45,30.18,30.00,24,9,29,0.00
2013-11-24,28.7,24.1,20.6,16.9,11.6,8.1,74,59,47,30.47,30.18,26,8,31,0.00
2013-11-25,34.4,26.6,18.4,15.6,12.0,8.5,71,54,38,30.52,30.28,14,5,19,0.00
2013-11-26,36.4,32.0,30.3,35.6,25.8,15.2,97,80,52,30.27,29.59,19,3,21,2.05
2013-11-27,39.1,35.3,27.1,37.5,30.2,17.3,97,82,65,29.97,29.48,21,8,28,0.20
2013-11-28,35.4,29.1,23.7,23.6,18.4,14.9,81,65,50,30.44,29.98,18,5,28,0.00
2013-11-29,38.4,30.0,24.6,24.5,21.4,17.9,86,71,53,30.70,30.43,16,3,18,0.00
2013-11-30,33.1,26.8,17.2,22.4,19.0,13.3,90,72,61,30.69,30.34,4,1,6,0.00
2013-12-1,37.2,29.5,18.2,30.4,24.3,15.5,92,81,71,30.34,29.98,4,0,5,0.00
2013-12-2,44.2,38.0,34.4,35.2,32.0,29.1,86,79,69,29.98,29.84,6,1,7,0.00
2013-12-3,54.8,41.2,33.2,42.0,35.7,31.0,94,82,61,29.95,29.85,5,0,6,0.00
2013-12-4,54.8,42.9,30.1,46.3,39.3,28.5,100,87,73,30.05,29.95,5,0,7,0.00
2013-12-5,64.9,55.3,47.5,58.9,52.9,45.1,98,92,80,30.02,29.85,10,2,16,0.00
2013-12-6,60.4,46.1,35.0,60.1,44.9,34.2,100,96,91,30.15,29.81,15,6,24,2.36
2013-12-7,37.2,34.0,27.2,34.5,28.7,20.3,97,81,68,30.51,30.10,19,6,23,0.00
2013-12-8,28.0,25.3,22.6,27.0,21.8,18.1,96,87,74,30.56,30.29,9,2,11,0.00
2013-12-9,37.8,30.9,27.9,35.3,29.6,26.9,98,95,77,30.29,29.99,12,1,21,0.25
2013-12-10,37.4,31.8,25.6,31.4,25.9,15.3,96,79,61,30.17,29.95,14,3,20,0.26
2013-12-11,33.9,25.3,17.3,19.8,16.0,11.1,88,68,55,30.35,30.16,13,2,16,0.06
2013-12-12,32.0,23.9,18.6,23.6,11.4,4.5,88,59,43,30.39,30.18,18,6,26,0.00
2013-12-13,37.8,28.3,21.3,24.4,16.4,10.3,78,61,53,30.28,30.16,20,5,24,0.02
2013-12-14,32.9,29.9,26.9,31.8,26.8,21.1,97,88,70,30.31,29.70,17,4,20,0.34
2013-12-15,39.0,32.7,29.6,34.8,27.9,22.3,97,83,67,29.89,29.60,21,5,28,0.36
2013-12-16,36.0,29.5,25.8,27.0,22.2,17.6,86,74,63,30.15,29.88,16,4,19,0.02
2013-12-17,34.4,27.8,22.6,31.0,25.5,20.8,100,91,84,30.13,29.91,9,1,11,0.08
2013-12-18,34.7,29.5,21.7,27.3,22.2,18.9,100,75,66,30.17,29.97,17,5,24,0.01
2013-12-19,44.5,32.6,19.7,33.3,25.9,16.7,91,77,63,30.15,30.03,6,2,7,0.10
2013-12-20,48.8,42.8,35.9,38.1,33.7,29.6,79,70,64,30.06,29.93,7,2,10,0.00
2013-12-21,63.6,53.6,44.0,58.3,47.8,37.6,90,81,73,29.95,29.81,10,4,16,0.00
2013-12-22,67.8,61.8,57.5,63.7,59.6,56.0,98,93,85,29.92,29.71,28,8,29,0.11
2013-12-23,57.7,49.7,34.4,57.0,45.5,25.4,99,86,68,30.20,29.84,20,4,28,0.43
2013-12-24,35.7,29.7,20.5,27.6,19.8,9.5,83,66,49,30.43,30.16,23,6,28,0.00
2013-12-25,29.5,23.4,15.8,18.2,13.5,8.9,77,66,53,30.54,30.34,8,2,15,0.00
2013-12-26,42.1,30.0,20.2,29.3,21.7,15.4,89,72,51,30.34,30.18,16,2,22,0.00
2013-12-27,48.9,36.2,23.2,27.8,22.0,17.6,82,58,35,30.36,30.25,15,3,20,0.00
2013-12-28,56.7,44.0,31.9,34.0,28.0,21.6,67,54,38,30.27,30.04,16,5,23,0.00
2013-12-29,44.5,41.7,37.9,42.6,37.3,29.1,98,86,59,30.05,29.52,17,3,19,1.07
2013-12-30,45.8,37.0,26.5,40.6,29.5,18.3,86,74,65,30.14,29.75,17,5,23,0.00
2013-12-31,39.5,30.1,25.2,28.4,21.0,16.1,84,69,52,30.28,30.05,23,4,35,0.00
2014-1-1,42.3,31.3,21.2,30.2,23.6,16.0,89,74,60,30.35,30.10,16,3,17,0.00
2014-1-2,32.2,28.5,23.0,28.4,25.9,21.2,95,90,85,30.10,29.62,16,5,19,0.00